createdAt,value
2022-11-21T00:00:19.920Z,1.04
2022-11-21T00:01:20.015Z,1.04
2022-11-21T00:02:20.211Z,1.04
2022-11-21T00:03:20.322Z,1.04
2022-11-21T00:04:20.479Z,1.04
2022-11-21T00:05:20.624Z,1.04
2022-11-21T00:06:20.727Z,1.04
2022-11-21T00:07:20.879Z,1.04
2022-11-21T00:08:20.937Z,1.04
2022-11-21T00:09:21.084Z,1.04
2022-11-21T00:10:21.247Z,1.04
2022-11-21T00:11:21.436Z,1.04
2022-11-21T00:12:21.531Z,1.04
2022-11-21T00:13:21.692Z,1.04
2022-11-21T00:14:21.841Z,1.04
2022-11-21T00:15:21.991Z,1.04
2022-11-21T00:16:22.080Z,1.04
2022-11-21T00:17:22.245Z,1.04
2022-11-21T00:18:22.389Z,1.04
2022-11-21T00:19:22.541Z,1.04
2022-11-21T00:20:22.695Z,1.04
2022-11-21T00:21:22.850Z,1.04
2022-11-21T00:22:23.000Z,1.04
2022-11-21T00:23:23.149Z,1.04
2022-11-21T00:24:23.301Z,1.04
2022-11-21T00:25:23.462Z,1.04
2022-11-21T00:26:23.607Z,1.04
2022-11-21T00:27:23.755Z,1.04
2022-11-21T00:28:23.914Z,1.04
2022-11-21T00:29:24.064Z,1.04
2022-11-21T00:30:24.218Z,1.04
2022-11-21T00:31:24.315Z,1.04
2022-11-21T00:32:24.403Z,1.04
2022-11-21T00:33:24.573Z,1.04
2022-11-21T00:34:24.894Z,1.04
2022-11-21T00:35:24.822Z,1.04
2022-11-21T00:36:24.968Z,1.04
2022-11-21T00:37:25.123Z,1.04
2022-11-21T00:38:25.289Z,1.04
2022-11-21T00:39:25.421Z,1.04
2022-11-21T00:40:25.576Z,1.04
2022-11-21T00:41:25.729Z,1.04
2022-11-21T00:42:25.870Z,1.04
2022-11-21T00:43:25.977Z,1.04
2022-11-21T00:44:26.417Z,1.04
2022-11-21T00:45:26.276Z,1.04
2022-11-21T00:46:26.372Z,1.04
2022-11-21T00:47:26.536Z,1.04
2022-11-21T00:48:26.688Z,1.04
2022-11-21T00:49:26.841Z,1.04
2022-11-21T00:50:26.993Z,1.04
2022-11-21T00:51:27.142Z,1.04
2022-11-21T00:52:27.270Z,1.04
2022-11-21T00:53:27.385Z,1.04
2022-11-21T00:54:27.789Z,1.04
2022-11-21T00:55:27.698Z,1.04
2022-11-21T00:56:27.846Z,1.04
2022-11-21T00:57:27.948Z,1.04
2022-11-21T00:58:28.101Z,1.04
2022-11-21T00:59:28.207Z,1.04
2022-11-21T01:00:28.462Z,1.04
2022-11-21T01:01:28.545Z,1.04
2022-11-21T01:02:28.630Z,1.04
2022-11-21T01:03:28.970Z,1.04
2022-11-21T01:04:29.265Z,1.04
2022-11-21T01:05:29.210Z,1.04
2022-11-21T01:06:29.316Z,1.04
2022-11-21T01:07:29.509Z,1.04
2022-11-21T01:08:29.618Z,1.04
2022-11-21T01:09:29.765Z,1.04
2022-11-21T01:10:29.919Z,1.04
2022-11-21T01:11:30.074Z,1.04
2022-11-21T01:12:30.218Z,1.04
2022-11-21T01:13:30.369Z,1.04
2022-11-21T01:14:30.546Z,1.04
2022-11-21T01:15:30.675Z,1.04
2022-11-21T01:16:30.819Z,1.04
2022-11-21T01:17:30.952Z,1.04
2022-11-21T01:18:31.072Z,1.04
2022-11-21T01:19:31.237Z,1.04
2022-11-21T01:20:31.396Z,1.04
2022-11-21T01:21:31.540Z,1.04
2022-11-21T01:22:31.678Z,1.04
2022-11-21T01:23:31.846Z,1.04
2022-11-21T01:24:31.988Z,1.04
2022-11-21T01:25:32.139Z,1.04
2022-11-21T01:26:32.290Z,1.04
2022-11-21T01:27:32.444Z,1.04
2022-11-21T01:28:32.602Z,1.04
2022-11-21T01:29:32.741Z,1.04
2022-11-21T01:30:32.798Z,1.04
2022-11-21T01:31:32.928Z,1.04
2022-11-21T01:32:33.093Z,1.04
2022-11-21T01:33:33.269Z,1.04
2022-11-21T01:34:33.403Z,1.04
2022-11-21T01:35:33.577Z,1.04
2022-11-21T01:36:33.733Z,1.04
2022-11-21T01:37:33.863Z,1.04
2022-11-21T01:38:34.006Z,1.04
2022-11-21T01:39:34.165Z,1.04
2022-11-21T01:40:34.270Z,1.04
2022-11-21T01:41:34.411Z,1.04
2022-11-21T01:42:34.558Z,1.04
2022-11-21T01:43:34.716Z,1.04
2022-11-21T01:44:34.871Z,1.04
2022-11-21T01:45:35.016Z,1.04
2022-11-21T01:46:35.158Z,1.04
2022-11-21T01:47:35.264Z,1.04
2022-11-21T01:48:35.372Z,1.04
2022-11-21T01:49:35.525Z,1.04
2022-11-21T01:50:35.639Z,1.04
2022-11-21T01:51:35.775Z,1.04
2022-11-21T01:52:35.932Z,1.04
2022-11-21T01:53:36.075Z,1.04
2022-11-21T01:54:36.246Z,1.04
2022-11-21T01:55:36.392Z,1.04
2022-11-21T01:56:36.478Z,1.04
2022-11-21T01:57:36.632Z,1.04
2022-11-21T01:58:36.788Z,1.04
2022-11-21T01:59:36.893Z,1.04
2022-11-21T02:00:37.053Z,1.04
2022-11-21T02:01:37.143Z,1.04
2022-11-21T02:02:37.377Z,1.04
2022-11-21T02:03:37.502Z,1.04
2022-11-21T02:04:37.613Z,1.04
2022-11-21T02:05:37.749Z,1.04
2022-11-21T02:06:37.905Z,1.04
2022-11-21T02:07:38.011Z,1.04
2022-11-21T02:08:38.168Z,1.04
2022-11-21T02:09:38.304Z,1.04
2022-11-21T02:10:38.457Z,1.04
2022-11-21T02:11:38.601Z,1.04
2022-11-21T02:12:38.763Z,1.04
2022-11-21T02:13:38.902Z,1.04
2022-11-21T02:14:39.059Z,1.04
2022-11-21T02:15:39.199Z,1.04
2022-11-21T02:16:39.356Z,1.04
2022-11-21T02:17:39.461Z,1.04
2022-11-21T02:18:39.619Z,1.04
2022-11-21T02:19:39.765Z,1.04
2022-11-21T02:20:39.916Z,1.04
2022-11-21T02:21:40.074Z,1.04
2022-11-21T02:22:40.180Z,1.04
2022-11-21T02:23:40.292Z,1.04
2022-11-21T02:24:40.416Z,1.04
2022-11-21T02:25:40.578Z,1.04
2022-11-21T02:26:40.728Z,1.04
2022-11-21T02:27:40.840Z,1.04
2022-11-21T02:28:40.976Z,1.04
2022-11-21T02:29:41.152Z,1.04
2022-11-21T02:30:41.273Z,1.04
2022-11-21T02:31:41.435Z,1.04
2022-11-21T02:32:41.585Z,1.04
2022-11-21T02:33:41.744Z,1.04
2022-11-21T02:34:41.889Z,1.04
2022-11-21T02:35:42.052Z,1.04
2022-11-21T02:36:42.195Z,1.04
2022-11-21T02:37:42.350Z,1.04
2022-11-21T02:38:42.493Z,1.04
2022-11-21T02:39:42.594Z,1.04
2022-11-21T02:40:42.745Z,1.04
2022-11-21T02:41:42.886Z,1.04
2022-11-21T02:42:43.082Z,1.04
2022-11-21T02:43:43.214Z,1.04
2022-11-21T02:44:43.325Z,1.04
2022-11-21T02:45:43.409Z,1.04
2022-11-21T02:46:43.509Z,1.04
2022-11-21T02:47:43.662Z,1.04
2022-11-21T02:48:43.771Z,1.04
2022-11-21T02:49:43.908Z,1.04
2022-11-21T02:50:44.007Z,1.04
2022-11-21T02:51:44.164Z,1.04
2022-11-21T02:52:44.312Z,1.04
2022-11-21T02:53:44.475Z,1.04
2022-11-21T02:54:44.617Z,1.04
2022-11-21T02:55:44.782Z,1.04
2022-11-21T02:56:44.922Z,1.04
2022-11-21T02:57:45.072Z,1.04
2022-11-21T02:58:45.170Z,1.04
2022-11-21T02:59:45.320Z,1.04
2022-11-21T03:00:45.486Z,1.04
2022-11-21T03:01:45.566Z,1.04
2022-11-21T03:02:45.665Z,1.04
2022-11-21T03:03:45.776Z,1.04
2022-11-21T03:04:45.877Z,1.04
2022-11-21T03:05:45.989Z,1.04
2022-11-21T03:06:46.143Z,1.04
2022-11-21T03:07:46.283Z,1.04
2022-11-21T03:08:46.432Z,1.04
2022-11-21T03:09:46.587Z,1.04
2022-11-21T03:10:46.737Z,1.04
2022-11-21T03:11:46.887Z,1.04
2022-11-21T03:12:47.053Z,1.04
2022-11-21T03:13:47.176Z,1.04
2022-11-21T03:14:47.297Z,1.04
2022-11-21T03:15:47.432Z,1.04
2022-11-21T03:16:47.547Z,1.04
2022-11-21T03:17:47.700Z,1.04
2022-11-21T03:18:47.860Z,1.04
2022-11-21T03:19:48.008Z,1.04
2022-11-21T03:20:48.158Z,1.04
2022-11-21T03:21:48.301Z,1.04
2022-11-21T03:22:48.451Z,1.04
2022-11-21T03:23:48.565Z,1.04
2022-11-21T03:24:48.701Z,1.04
2022-11-21T03:25:48.858Z,1.04
2022-11-21T03:26:49.011Z,1.04
2022-11-21T03:27:49.160Z,1.04
2022-11-21T03:28:49.325Z,1.04
2022-11-21T03:29:49.419Z,1.04
2022-11-21T03:30:49.557Z,1.04
2022-11-21T03:31:49.728Z,1.04
2022-11-21T03:32:49.876Z,1.04
2022-11-21T03:33:50.043Z,1.04
2022-11-21T03:34:50.166Z,1.04
2022-11-21T03:35:50.337Z,1.04
2022-11-21T03:36:50.478Z,1.04
2022-11-21T03:37:50.638Z,1.04
2022-11-21T03:38:50.780Z,1.04
2022-11-21T03:39:50.932Z,1.04
2022-11-21T03:40:51.077Z,1.04
2022-11-21T03:41:51.201Z,1.04
2022-11-21T03:42:51.327Z,1.04
2022-11-21T03:43:51.492Z,1.04
2022-11-21T03:44:51.650Z,1.04
2022-11-21T03:45:51.774Z,1.04
2022-11-21T03:46:51.889Z,1.04
2022-11-21T03:47:51.991Z,1.04
2022-11-21T03:48:52.150Z,1.04
2022-11-21T03:49:52.296Z,1.04
2022-11-21T03:50:52.450Z,1.04
2022-11-21T03:51:52.557Z,1.04
2022-11-21T03:52:52.707Z,1.04
2022-11-21T03:53:52.861Z,1.04
2022-11-21T03:54:53.005Z,1.04
2022-11-21T03:55:53.117Z,1.04
2022-11-21T03:56:53.256Z,1.04
2022-11-21T03:57:53.405Z,1.04
2022-11-21T03:58:53.571Z,1.04
2022-11-21T03:59:53.660Z,1.04
2022-11-21T04:00:53.817Z,1.04
2022-11-21T04:01:54.025Z,1.04
2022-11-21T04:02:54.104Z,1.04
2022-11-21T04:03:54.258Z,1.04
2022-11-21T04:04:54.372Z,1.04
2022-11-21T04:05:54.522Z,1.04
2022-11-21T04:06:54.675Z,1.04
2022-11-21T04:07:54.810Z,1.04
2022-11-21T04:08:54.978Z,1.04
2022-11-21T04:09:55.131Z,1.04
2022-11-21T04:10:55.295Z,1.04
2022-11-21T04:11:55.432Z,1.04
2022-11-21T04:12:55.572Z,1.04
2022-11-21T04:13:55.732Z,1.04
2022-11-21T04:14:55.886Z,1.04
2022-11-21T04:15:55.972Z,1.04
2022-11-21T04:16:56.073Z,1.04
2022-11-21T04:17:56.238Z,1.04
2022-11-21T04:18:56.388Z,1.04
2022-11-21T04:19:56.560Z,1.04
2022-11-21T04:20:56.688Z,1.04
2022-11-21T04:21:56.848Z,1.04
2022-11-21T04:22:56.996Z,1.04
2022-11-21T04:23:57.090Z,1.04
2022-11-21T04:24:57.250Z,1.04
2022-11-21T04:25:57.347Z,1.04
2022-11-21T04:26:57.496Z,1.04
2022-11-21T04:27:57.655Z,1.04
2022-11-21T04:28:57.811Z,1.04
2022-11-21T04:29:57.959Z,1.04
2022-11-21T04:31:00.584Z,1.04
2022-11-21T04:31:58.206Z,1.04
2022-11-21T04:32:58.366Z,1.04
2022-11-21T04:33:58.521Z,1.04
2022-11-21T04:34:58.672Z,1.04
2022-11-21T04:35:58.820Z,1.04
2022-11-21T04:36:58.990Z,1.04
2022-11-21T04:37:59.120Z,1.04
2022-11-21T04:38:59.216Z,1.04
2022-11-21T04:39:59.317Z,1.04
2022-11-21T04:40:59.462Z,1.04
2022-11-21T04:41:59.575Z,1.04
2022-11-21T04:42:59.673Z,1.04
2022-11-21T04:43:59.835Z,1.04
2022-11-21T04:44:59.977Z,1.04
2022-11-21T04:46:00.121Z,1.04
2022-11-21T04:47:04.984Z,1.04
2022-11-21T04:48:00.426Z,1.04
2022-11-21T04:49:00.536Z,1.04
2022-11-21T04:50:00.681Z,1.04
2022-11-21T04:51:00.836Z,1.04
2022-11-21T04:52:00.988Z,1.04
2022-11-21T04:53:01.136Z,1.04
2022-11-21T04:54:01.299Z,1.04
2022-11-21T04:55:01.450Z,1.04
2022-11-21T04:56:01.564Z,1.04
2022-11-21T04:57:01.688Z,1.04
2022-11-21T04:58:01.853Z,1.04
2022-11-21T04:59:01.990Z,1.04
2022-11-21T05:00:02.154Z,1.04
2022-11-21T05:01:02.274Z,1.04
2022-11-21T05:02:02.347Z,1.04
2022-11-21T05:03:02.504Z,1.04
2022-11-21T05:04:02.649Z,1.04
2022-11-21T05:05:02.770Z,1.04
2022-11-21T05:06:02.886Z,1.04
2022-11-21T05:07:03.042Z,1.04
2022-11-21T05:08:03.153Z,1.04
2022-11-21T05:09:03.298Z,1.04
2022-11-21T05:10:03.441Z,1.04
2022-11-21T05:11:03.552Z,1.04
2022-11-21T05:12:03.697Z,1.04
2022-11-21T05:13:03.797Z,1.04
2022-11-21T05:14:03.956Z,1.04
2022-11-21T05:15:04.128Z,1.04
2022-11-21T05:16:04.258Z,1.04
2022-11-21T05:17:04.358Z,1.04
2022-11-21T05:18:04.526Z,1.04
2022-11-21T05:19:04.675Z,1.04
2022-11-21T05:20:04.823Z,1.04
2022-11-21T05:21:04.987Z,1.04
2022-11-21T05:22:05.126Z,1.04
2022-11-21T05:23:05.277Z,1.04
2022-11-21T05:24:05.429Z,1.04
2022-11-21T05:25:05.580Z,1.04
2022-11-21T05:26:05.736Z,1.04
2022-11-21T05:27:05.879Z,1.04
2022-11-21T05:28:06.038Z,1.04
2022-11-21T05:29:06.186Z,1.04
2022-11-21T05:30:06.345Z,1.04
2022-11-21T05:31:06.482Z,1.04
2022-11-21T05:32:06.592Z,1.04
2022-11-21T05:33:06.743Z,1.04
2022-11-21T05:34:06.899Z,1.04
2022-11-21T05:35:07.051Z,1.04
2022-11-21T05:36:07.203Z,1.04
2022-11-21T05:37:07.361Z,1.04
2022-11-21T05:38:07.454Z,1.04
2022-11-21T05:39:07.605Z,1.04
2022-11-21T05:40:07.766Z,1.04
2022-11-21T05:41:07.937Z,1.04
2022-11-21T05:42:08.044Z,1.04
2022-11-21T05:43:08.162Z,1.04
2022-11-21T05:44:08.317Z,1.04
2022-11-21T05:45:08.405Z,1.04
2022-11-21T05:46:08.547Z,1.04
2022-11-21T05:47:08.656Z,1.04
2022-11-21T05:48:08.817Z,1.04
2022-11-21T05:49:08.972Z,1.04
2022-11-21T05:50:09.060Z,1.04
2022-11-21T05:51:09.210Z,1.04
2022-11-21T05:52:09.377Z,1.04
2022-11-21T05:53:09.545Z,1.04
2022-11-21T05:54:09.630Z,1.04
2022-11-21T05:55:09.782Z,1.04
2022-11-21T05:56:09.939Z,1.04
2022-11-21T05:57:10.075Z,1.04
2022-11-21T05:58:10.223Z,2
2022-11-21T05:59:10.334Z,2
2022-11-21T06:00:10.480Z,2
2022-11-21T06:01:10.630Z,2
2022-11-21T06:02:10.800Z,2
2022-11-21T06:03:10.950Z,3.04
2022-11-21T06:04:11.040Z,3.04
2022-11-21T06:05:11.205Z,3.04
2022-11-21T06:06:11.326Z,3.04
2022-11-21T06:07:11.507Z,4
2022-11-21T06:08:11.592Z,5.04
2022-11-21T06:09:11.748Z,5.04
2022-11-21T06:10:11.920Z,6
2022-11-21T06:11:12.054Z,7.04
2022-11-21T06:12:12.207Z,7.04
2022-11-21T06:13:12.425Z,9.04
2022-11-21T06:14:12.524Z,10
2022-11-21T06:15:12.645Z,13.04
2022-11-21T06:16:12.793Z,16
2022-11-21T06:17:12.953Z,19.04
2022-11-21T06:18:13.052Z,19.04
2022-11-21T06:19:13.211Z,20
2022-11-21T06:20:13.327Z,22
2022-11-21T06:21:13.459Z,21.04
2022-11-21T06:22:13.614Z,19.04
2022-11-21T06:23:13.765Z,22
2022-11-21T06:24:17.042Z,32
2022-11-21T06:25:14.067Z,36
2022-11-21T06:26:14.223Z,37.04
2022-11-21T06:27:14.381Z,39.04
2022-11-21T06:28:14.549Z,39.04
2022-11-21T06:29:14.666Z,45.04
2022-11-21T06:30:19.150Z,58
2022-11-21T06:31:14.919Z,60
2022-11-21T06:32:15.054Z,64
2022-11-21T06:33:15.166Z,67.04
2022-11-21T06:34:15.273Z,76
2022-11-21T06:35:15.431Z,80
2022-11-21T06:36:15.581Z,80
2022-11-21T06:37:15.729Z,81.04
2022-11-21T06:38:15.874Z,85.04
2022-11-21T06:39:15.984Z,102
2022-11-21T06:40:16.141Z,94
2022-11-21T06:41:16.245Z,106
2022-11-21T06:42:16.394Z,115.04
2022-11-21T06:43:16.550Z,124
2022-11-21T06:44:16.701Z,137.04
2022-11-21T06:45:16.873Z,116
2022-11-21T06:46:16.993Z,105.04
2022-11-21T06:47:17.134Z,93.04
2022-11-21T06:48:17.243Z,104
2022-11-21T06:49:17.396Z,109.04
2022-11-21T06:50:17.553Z,111.04
2022-11-21T06:51:17.698Z,134
2022-11-21T06:52:17.866Z,141.04
2022-11-21T06:53:18.007Z,153.04
2022-11-21T06:54:18.158Z,151.04
2022-11-21T06:55:18.311Z,184
2022-11-21T06:56:18.504Z,236
2022-11-21T06:57:18.628Z,203.04
2022-11-21T06:58:18.756Z,228
2022-11-21T06:59:18.912Z,231.04
2022-11-21T07:00:19.082Z,272
2022-11-21T07:01:19.298Z,302.08
2022-11-21T07:02:19.376Z,305.12
2022-11-21T07:03:19.513Z,362.24
2022-11-21T07:04:19.691Z,396.16
2022-11-21T07:05:19.788Z,474.24
2022-11-21T07:06:19.884Z,551.04
2022-11-21T07:07:20.088Z,570.24
2022-11-21T07:08:20.175Z,621.12
2022-11-21T07:09:34.070Z,846.08
2022-11-21T07:10:20.480Z,900.48
2022-11-21T07:11:25.169Z,897.28
2022-11-21T07:12:20.764Z,814.08
2022-11-21T07:13:20.895Z,876.16
2022-11-21T07:14:21.042Z,876.16
2022-11-21T07:15:21.198Z,825.6
2022-11-21T07:16:21.344Z,954.24
2022-11-21T07:17:21.488Z,1016.32
2022-11-21T07:18:21.654Z,861.44
2022-11-21T07:19:21.842Z,818.56
2022-11-21T07:20:21.945Z,879.36
2022-11-21T07:21:22.103Z,815.36
2022-11-21T07:22:22.253Z,789.12
2022-11-21T07:23:22.357Z,843.52
2022-11-21T07:24:22.536Z,871.04
2022-11-21T07:25:22.653Z,849.28
2022-11-21T07:26:22.809Z,962.56
2022-11-21T07:27:22.959Z,888.32
2022-11-21T07:28:23.105Z,966.4
2022-11-21T07:29:23.213Z,1099.52
2022-11-21T07:30:23.372Z,961.28
2022-11-21T07:31:23.506Z,929.28
2022-11-21T07:32:23.665Z,990.08
2022-11-21T07:33:23.831Z,1068.16
2022-11-21T07:34:23.982Z,1141.12
2022-11-21T07:35:24.080Z,1492.48
2022-11-21T07:36:24.226Z,1519.36
2022-11-21T07:37:24.367Z,1486.08
2022-11-21T07:38:24.537Z,1523.2
2022-11-21T07:39:24.676Z,1792
2022-11-21T07:40:24.828Z,1708.8
2022-11-21T07:41:24.935Z,1761.28
2022-11-21T07:42:25.085Z,1980.16
2022-11-21T07:43:25.229Z,2150.4
2022-11-21T07:44:25.403Z,2044.16
2022-11-21T07:45:25.535Z,2099.2
2022-11-21T07:46:25.667Z,2122.24
2022-11-21T07:47:25.795Z,2521.6
2022-11-21T07:48:25.882Z,2810.88
2022-11-21T07:49:26.430Z,2762.24
2022-11-21T07:50:26.224Z,3366.4
2022-11-21T07:51:26.330Z,3573.76
2022-11-21T07:52:26.482Z,3343.36
2022-11-21T07:53:26.591Z,3159.04
2022-11-21T07:54:26.739Z,3998.72
2022-11-21T07:55:26.905Z,3760.64
2022-11-21T07:56:27.049Z,3584
2022-11-21T07:57:27.201Z,3217.92
2022-11-21T07:58:27.356Z,3023.36
2022-11-21T07:59:27.705Z,2579.2
2022-11-21T08:00:27.711Z,2808.32
2022-11-21T08:01:27.856Z,2621.44
2022-11-21T08:02:27.956Z,2598.4
2022-11-21T08:03:28.049Z,2478.08
2022-11-21T08:04:28.154Z,1917.44
2022-11-21T08:05:28.304Z,2141.44
2022-11-21T08:06:28.463Z,2333.44
2022-11-21T08:07:28.685Z,2759.68
2022-11-21T08:08:28.801Z,2944
2022-11-21T08:09:29.162Z,3020.8
2022-11-21T08:10:29.233Z,3243.52
2022-11-21T08:11:29.221Z,3097.6
2022-11-21T08:12:29.384Z,2716.16
2022-11-21T08:13:29.519Z,2543.36
2022-11-21T08:14:29.683Z,2032.64
2022-11-21T08:15:29.829Z,1967.36
2022-11-21T08:16:29.967Z,1774.08
2022-11-21T08:17:30.115Z,1649.92
2022-11-21T08:18:30.293Z,1657.6
2022-11-21T08:19:30.563Z,1657.6
2022-11-21T08:20:30.581Z,1649.92
2022-11-21T08:21:30.726Z,1753.6
2022-11-21T08:22:30.891Z,2001.92
2022-11-21T08:23:31.059Z,2077.44
2022-11-21T08:24:31.131Z,2071.04
2022-11-21T08:25:31.283Z,1955.84
2022-11-21T08:26:31.399Z,1788.16
2022-11-21T08:27:31.546Z,1674.24
2022-11-21T08:28:31.688Z,1644.8
2022-11-21T08:29:31.852Z,1623.04
2022-11-21T08:30:32.022Z,1605.12
2022-11-21T08:31:32.144Z,1657.6
2022-11-21T08:32:32.242Z,1735.68
2022-11-21T08:33:32.339Z,1862.4
2022-11-21T08:34:32.456Z,1845.76
2022-11-21T08:35:32.578Z,1824
2022-11-21T08:36:32.710Z,1808.64
2022-11-21T08:37:32.819Z,1797.12
2022-11-21T08:38:32.994Z,1984
2022-11-21T08:39:33.103Z,2231.04
2022-11-21T08:40:33.271Z,1934.08
2022-11-21T08:41:33.419Z,1916.16
2022-11-21T08:42:33.579Z,1880.32
2022-11-21T08:43:33.728Z,1870.08
2022-11-21T08:44:33.872Z,1838.08
2022-11-21T08:45:34.022Z,1866.24
2022-11-21T08:46:34.181Z,1776.64
2022-11-21T08:47:34.308Z,1854.72
2022-11-21T08:48:34.425Z,2003.2
2022-11-21T08:49:34.568Z,2126.08
2022-11-21T08:50:34.722Z,2289.92
2022-11-21T08:51:34.888Z,2224.64
2022-11-21T08:52:35.024Z,2344.96
2022-11-21T08:53:35.183Z,2028.8
2022-11-21T08:54:35.339Z,2172.16
2022-11-21T08:55:35.472Z,2218.24
2022-11-21T08:56:35.636Z,2447.36
2022-11-21T08:57:35.799Z,2408.96
2022-11-21T08:58:35.941Z,2223.36
2022-11-21T08:59:36.092Z,2169.6
2022-11-21T09:00:36.240Z,2348.8
2022-11-21T09:01:36.418Z,2104.32
2022-11-21T09:02:36.544Z,1824
2022-11-21T09:03:36.647Z,1710.08
2022-11-21T09:04:36.738Z,1546.24
2022-11-21T09:05:36.827Z,1395.2
2022-11-21T09:06:37.074Z,1297.28
2022-11-21T09:07:37.187Z,1408
2022-11-21T09:08:37.242Z,1582.08
2022-11-21T09:09:37.413Z,1679.36
2022-11-21T09:10:37.547Z,1674.24
2022-11-21T09:11:37.694Z,2045.44
2022-11-21T09:12:37.863Z,2058.24
2022-11-21T09:13:38.010Z,1890.56
2022-11-21T09:14:38.171Z,2158.08
2022-11-21T09:15:38.307Z,2250.24
2022-11-21T09:16:38.469Z,2507.52
2022-11-21T09:17:38.623Z,2664.96
2022-11-21T09:18:38.722Z,2286.08
2022-11-21T09:19:38.864Z,1726.72
2022-11-21T09:20:39.044Z,1486.08
2022-11-21T09:21:39.193Z,1309.44
2022-11-21T09:22:39.333Z,1263.36
2022-11-21T09:23:39.469Z,1267.2
2022-11-21T09:24:39.587Z,1401.6
2022-11-21T09:25:39.729Z,1949.44
2022-11-21T09:26:39.879Z,2890.24
2022-11-21T09:27:40.037Z,3548.16
2022-11-21T09:28:40.184Z,4628.48
2022-11-21T09:29:40.333Z,5688.32
2022-11-21T09:30:40.477Z,4861.44
2022-11-21T09:31:40.673Z,4846.08
2022-11-21T09:32:40.783Z,4218.88
2022-11-21T09:33:40.948Z,4134.4
2022-11-21T09:34:41.037Z,3955.2
2022-11-21T09:35:41.222Z,3658.24
2022-11-21T09:36:41.377Z,3648
2022-11-21T09:37:41.501Z,3712
2022-11-21T09:38:41.635Z,3904
2022-11-21T09:39:41.802Z,3937.28
2022-11-21T09:40:41.934Z,3788.8
2022-11-21T09:41:42.097Z,3788.8
2022-11-21T09:42:42.244Z,3845.12
2022-11-21T09:43:42.358Z,3832.32
2022-11-21T09:44:42.531Z,3724.8
2022-11-21T09:45:42.592Z,3735.04
2022-11-21T09:46:42.723Z,3676.16
2022-11-21T09:47:42.860Z,3571.2
2022-11-21T09:48:43.025Z,3827.2
2022-11-21T09:49:43.201Z,3942.4
2022-11-21T09:50:43.318Z,4218.88
2022-11-21T09:51:43.427Z,4794.88
2022-11-21T09:52:43.570Z,5094.4
2022-11-21T09:53:43.711Z,5626.88
2022-11-21T09:54:43.823Z,5140.48
2022-11-21T09:55:43.967Z,4669.44
2022-11-21T09:56:44.122Z,5278.72
2022-11-21T09:57:44.276Z,5713.92
2022-11-21T09:58:44.434Z,5091.84
2022-11-21T09:59:44.578Z,4623.36
2022-11-21T10:00:44.682Z,4172.8
2022-11-21T10:01:44.773Z,4072.96
2022-11-21T10:02:44.936Z,3965.44
2022-11-21T10:03:45.073Z,3663.36
2022-11-21T10:04:45.230Z,3589.12
2022-11-21T10:05:45.361Z,3955.2
2022-11-21T10:06:45.474Z,3880.96
2022-11-21T10:07:47.196Z,3614.72
2022-11-21T10:08:45.799Z,3540.48
2022-11-21T10:09:45.947Z,3499.52
2022-11-21T10:10:46.053Z,3499.52
2022-11-21T10:11:46.184Z,3504.64
2022-11-21T10:12:46.348Z,3504.64
2022-11-21T10:13:46.498Z,3356.16
2022-11-21T10:14:47.953Z,3089.92
2022-11-21T10:15:47.115Z,2818.56
2022-11-21T10:16:46.913Z,2752
2022-11-21T10:17:48.117Z,2682.88
2022-11-21T10:18:47.153Z,2515.2
2022-11-21T10:19:47.316Z,2429.44
2022-11-21T10:20:47.455Z,2376.96
2022-11-21T10:21:47.560Z,2336
2022-11-21T10:22:47.722Z,2430.72
2022-11-21T10:23:47.867Z,2561.28
2022-11-21T10:24:47.969Z,2634.24
2022-11-21T10:25:48.143Z,2734.08
2022-11-21T10:26:48.270Z,2897.92
2022-11-21T10:27:48.432Z,3069.44
2022-11-21T10:28:48.571Z,3653.12
2022-11-21T10:29:48.718Z,4152.32
2022-11-21T10:30:48.858Z,3860.48
2022-11-21T10:31:49.016Z,3130.88
2022-11-21T10:32:49.177Z,2739.2
2022-11-21T10:33:49.329Z,2823.68
2022-11-21T10:34:49.492Z,3013.12
2022-11-21T10:35:49.672Z,3310.08
2022-11-21T10:36:49.830Z,3194.88
2022-11-21T10:37:49.980Z,3043.84
2022-11-21T10:38:50.176Z,2954.24
2022-11-21T10:39:50.317Z,2977.28
2022-11-21T10:40:50.437Z,3087.36
2022-11-21T10:41:50.587Z,3148.8
2022-11-21T10:42:50.739Z,2954.24
2022-11-21T10:43:50.881Z,2604.8
2022-11-21T10:44:51.040Z,2414.08
2022-11-21T10:45:51.178Z,2160.64
2022-11-21T10:46:51.280Z,1946.88
2022-11-21T10:47:51.440Z,1866.24
2022-11-21T10:48:51.597Z,1891.84
2022-11-21T10:49:51.742Z,1923.84
2022-11-21T10:50:51.894Z,1978.88
2022-11-21T10:51:52.048Z,2054.4
2022-11-21T10:52:52.202Z,2174.72
2022-11-21T10:53:52.356Z,2376.96
2022-11-21T10:54:52.510Z,2474.24
2022-11-21T10:55:52.608Z,2579.2
2022-11-21T10:56:52.763Z,2631.68
2022-11-21T10:57:52.853Z,2749.44
2022-11-21T10:58:53.036Z,3051.52
2022-11-21T10:59:53.173Z,3095.04
2022-11-21T11:00:53.348Z,2984.96
2022-11-21T11:01:53.465Z,3197.44
2022-11-21T11:02:53.613Z,3686.4
2022-11-21T11:04:13.801Z,4019.2
2022-11-21T11:04:54.330Z,4257.28
2022-11-21T11:05:54.066Z,4395.52
2022-11-21T11:06:54.231Z,4377.6
2022-11-21T11:07:54.376Z,4303.36
2022-11-21T11:08:54.469Z,4275.2
2022-11-21T11:09:54.621Z,4492.8
2022-11-21T11:10:54.771Z,4866.56
2022-11-21T11:11:54.927Z,5273.6
2022-11-21T11:12:55.089Z,5754.88
2022-11-21T11:13:55.261Z,6051.84
2022-11-21T11:14:55.392Z,5606.4
2022-11-21T11:15:55.521Z,5232.64
2022-11-21T11:16:55.747Z,5427.2
2022-11-21T11:17:55.852Z,5632
2022-11-21T11:18:55.986Z,5539.84
2022-11-21T11:19:56.144Z,5335.04
2022-11-21T11:20:56.301Z,5263.36
2022-11-21T11:21:56.448Z,5294.08
2022-11-21T11:22:56.597Z,5209.6
2022-11-21T11:23:56.700Z,5171.2
2022-11-21T11:25:00.331Z,5304.32
2022-11-21T11:25:56.904Z,5652.48
2022-11-21T11:26:57.052Z,5944.32
2022-11-21T11:27:57.200Z,5975.04
2022-11-21T11:28:57.383Z,5529.6
2022-11-21T11:29:57.508Z,5204.48
2022-11-21T11:30:58.933Z,5166.08
2022-11-21T11:31:57.763Z,5084.16
2022-11-21T11:32:57.916Z,4641.28
2022-11-21T11:33:58.061Z,4055.04
2022-11-21T11:34:58.202Z,3729.92
2022-11-21T11:35:58.364Z,3397.12
2022-11-21T11:36:58.485Z,3381.76
2022-11-21T11:37:58.602Z,3553.28
2022-11-21T11:38:58.763Z,3604.48
2022-11-21T11:39:58.868Z,3566.08
2022-11-21T11:40:59.018Z,3829.76
2022-11-21T11:41:59.179Z,4313.6
2022-11-21T11:42:59.331Z,4874.24
2022-11-21T11:43:59.421Z,4951.04
2022-11-21T11:44:59.568Z,4881.92
2022-11-21T11:45:59.719Z,4794.88
2022-11-21T11:46:59.883Z,4518.4
2022-11-21T11:47:59.992Z,4390.4
2022-11-21T11:49:20.639Z,4700.16
2022-11-21T11:50:00.294Z,4999.68
2022-11-21T11:51:00.435Z,5158.4
2022-11-21T11:52:00.546Z,5061.12
2022-11-21T11:53:00.690Z,4917.76
2022-11-21T11:54:01.313Z,5009.92
2022-11-21T11:55:00.948Z,5071.36
2022-11-21T11:56:01.087Z,5099.52
2022-11-21T11:57:01.260Z,5340.16
2022-11-21T11:58:01.402Z,5381.12
2022-11-21T11:59:01.548Z,5171.2
2022-11-21T12:00:01.693Z,5076.48
2022-11-21T12:01:01.860Z,5086.72
2022-11-21T12:02:01.982Z,5015.04
2022-11-21T12:03:02.064Z,5040.64
2022-11-21T12:04:02.221Z,5189.12
2022-11-21T12:05:02.387Z,5319.68
2022-11-21T12:06:07.674Z,5294.08
2022-11-21T12:07:54.324Z,5340.16
2022-11-21T12:09:03.035Z,5268.48
2022-11-21T12:10:03.083Z,5204.48
2022-11-21T12:11:03.207Z,5406.72
2022-11-21T12:12:03.324Z,5519.36
2022-11-21T12:13:03.488Z,5463.04
2022-11-21T12:14:03.622Z,5117.44
2022-11-21T12:15:03.753Z,5043.2
2022-11-21T12:16:10.108Z,5102.08
2022-11-21T12:17:03.999Z,5335.04
2022-11-21T12:18:04.116Z,5611.52
2022-11-21T12:19:04.278Z,6016
2022-11-21T12:20:04.440Z,6594.56
2022-11-21T12:21:04.594Z,6958.08
2022-11-21T12:22:04.730Z,6881.28
2022-11-21T12:23:04.900Z,6476.8
2022-11-21T12:24:05.038Z,6010.88
2022-11-21T12:25:05.191Z,5550.08
2022-11-21T12:26:05.336Z,5524.48
2022-11-21T12:27:05.490Z,5611.52
2022-11-21T12:28:05.634Z,5544.96
2022-11-21T12:29:05.794Z,5191.68
2022-11-21T12:30:05.934Z,4712.96
2022-11-21T12:31:06.080Z,4508.16
2022-11-21T12:32:06.242Z,4561.92
2022-11-21T12:33:08.771Z,4492.8
2022-11-21T12:34:06.549Z,4106.24
2022-11-21T12:35:06.686Z,3778.56
2022-11-21T12:36:17.115Z,3863.04
2022-11-21T12:37:06.901Z,4574.72
2022-11-21T12:38:07.043Z,5437.44
2022-11-21T12:39:07.198Z,6138.88
2022-11-21T12:40:07.349Z,6461.44
2022-11-21T12:41:07.452Z,7101.44
2022-11-21T12:42:07.607Z,7705.6
2022-11-21T12:43:07.706Z,8990.72
2022-11-21T12:44:07.868Z,9497.6
2022-11-21T12:45:08.017Z,9589.76
2022-11-21T12:46:08.161Z,10193.92
2022-11-21T12:47:08.259Z,9456.64
2022-11-21T12:48:08.409Z,9108.479
2022-11-21T12:49:08.561Z,7802.88
2022-11-21T12:50:08.725Z,7034.88
2022-11-21T12:51:08.861Z,6236.16